sensor_id;sensor_type;location;lat;lon;timestamp;P1;durP1;ratioP1;P2;durP2;ratioP2
3427;SDS011;1727;42.624;23.406;2023-04-03T00:00:05;4.50;;;3.20;;
3427;SDS011;1727;42.624;23.406;2023-04-03T00:02:33;5.00;;;3.33;;
3427;SDS011;1727;42.624;23.406;2023-04-03T00:05:00;2.73;;;2.53;;
3427;SDS011;1727;42.624;23.406;2023-04-03T00:07:26;3.23;;;2.93;;
3427;SDS011;1727;42.624;23.406;2023-04-03T00:09:55;4.80;;;2.70;;
3427;SDS011;1727;42.624;23.406;2023-04-03T00:12:21;3.13;;;2.60;;
3427;SDS011;1727;42.624;23.406;2023-04-03T00:14:48;3.53;;;3.03;;
3427;SDS011;1727;42.624;23.406;2023-04-03T00:17:15;4.33;;;3.73;;
3427;SDS011;1727;42.624;23.406;2023-04-03T00:19:42;3.87;;;2.90;;
3427;SDS011;1727;42.624;23.406;2023-04-03T00:22:08;3.80;;;3.50;;
3427;SDS011;1727;42.624;23.406;2023-04-03T00:24:35;4.23;;;2.87;;
3427;SDS011;1727;42.624;23.406;2023-04-03T00:27:03;3.30;;;3.00;;
3427;SDS011;1727;42.624;23.406;2023-04-03T00:29:30;4.13;;;3.33;;
3427;SDS011;1727;42.624;23.406;2023-04-03T00:31:57;3.23;;;2.93;;
3427;SDS011;1727;42.624;23.406;2023-04-03T00:34:24;6.93;;;3.53;;
3427;SDS011;1727;42.624;23.406;2023-04-03T00:36:50;3.40;;;2.73;;
3427;SDS011;1727;42.624;23.406;2023-04-03T00:39:17;3.10;;;2.80;;
3427;SDS011;1727;42.624;23.406;2023-04-03T00:41:44;4.07;;;2.70;;
3427;SDS011;1727;42.624;23.406;2023-04-03T00:44:22;3.97;;;3.03;;
3427;SDS011;1727;42.624;23.406;2023-04-03T00:47:11;3.00;;;2.40;;
3427;SDS011;1727;42.624;23.406;2023-04-03T00:49:39;5.87;;;3.00;;
3427;SDS011;1727;42.624;23.406;2023-04-03T00:52:07;3.63;;;2.93;;
3427;SDS011;1727;42.624;23.406;2023-04-03T00:54:37;3.33;;;3.00;;
3427;SDS011;1727;42.624;23.406;2023-04-03T00:57:06;4.07;;;2.83;;
3427;SDS011;1727;42.624;23.406;2023-04-03T00:59:37;6.63;;;3.23;;
3427;SDS011;1727;42.624;23.406;2023-04-03T01:02:09;3.07;;;2.77;;
3427;SDS011;1727;42.624;23.406;2023-04-03T01:04:36;3.40;;;2.50;;
3427;SDS011;1727;42.624;23.406;2023-04-03T01:07:06;2.93;;;2.73;;
3427;SDS011;1727;42.624;23.406;2023-04-03T01:09:34;6.03;;;3.00;;
3427;SDS011;1727;42.624;23.406;2023-04-03T01:12:12;5.10;;;2.83;;
3427;SDS011;1727;42.624;23.406;2023-04-03T01:14:42;3.43;;;2.90;;
3427;SDS011;1727;42.624;23.406;2023-04-03T01:17:24;2.90;;;2.70;;
3427;SDS011;1727;42.624;23.406;2023-04-03T01:19:57;5.30;;;3.13;;
3427;SDS011;1727;42.624;23.406;2023-04-03T01:22:46;5.40;;;3.07;;
3427;SDS011;1727;42.624;23.406;2023-04-03T01:25:18;3.97;;;3.30;;
3427;SDS011;1727;42.624;23.406;2023-04-03T01:27:45;5.00;;;4.03;;
3427;SDS011;1727;42.624;23.406;2023-04-03T01:30:14;5.03;;;2.90;;
3427;SDS011;1727;42.624;23.406;2023-04-03T01:32:46;4.93;;;3.23;;
3427;SDS011;1727;42.624;23.406;2023-04-03T01:35:13;3.90;;;3.53;;
3427;SDS011;1727;42.624;23.406;2023-04-03T01:37:40;5.50;;;2.87;;
3427;SDS011;1727;42.624;23.406;2023-04-03T01:40:07;3.43;;;3.13;;
3427;SDS011;1727;42.624;23.406;2023-04-03T01:42:34;3.37;;;2.97;;
3427;SDS011;1727;42.624;23.406;2023-04-03T01:45:01;3.27;;;2.90;;
3427;SDS011;1727;42.624;23.406;2023-04-03T01:47:28;2.87;;;2.67;;
3427;SDS011;1727;42.624;23.406;2023-04-03T01:49:56;3.43;;;2.87;;
3427;SDS011;1727;42.624;23.406;2023-04-03T01:52:23;4.87;;;3.03;;
3427;SDS011;1727;42.624;23.406;2023-04-03T01:54:49;4.27;;;2.63;;
3427;SDS011;1727;42.624;23.406;2023-04-03T01:57:16;3.23;;;2.90;;
3427;SDS011;1727;42.624;23.406;2023-04-03T01:59:43;3.93;;;3.07;;
3427;SDS011;1727;42.624;23.406;2023-04-03T02:02:10;7.00;;;3.77;;
3427;SDS011;1727;42.624;23.406;2023-04-03T02:04:39;4.60;;;3.17;;
3427;SDS011;1727;42.624;23.406;2023-04-03T02:07:07;3.83;;;3.20;;
3427;SDS011;1727;42.624;23.406;2023-04-03T02:09:34;4.73;;;3.57;;
3427;SDS011;1727;42.624;23.406;2023-04-03T02:12:01;3.53;;;3.23;;
3427;SDS011;1727;42.624;23.406;2023-04-03T02:14:28;4.73;;;3.70;;
3427;SDS011;1727;42.624;23.406;2023-04-03T02:16:55;5.00;;;3.80;;
3427;SDS011;1727;42.624;23.406;2023-04-03T02:19:21;5.00;;;4.30;;
3427;SDS011;1727;42.624;23.406;2023-04-03T02:21:48;3.63;;;3.20;;
3427;SDS011;1727;42.624;23.406;2023-04-03T02:24:16;3.50;;;2.97;;
3427;SDS011;1727;42.624;23.406;2023-04-03T02:26:43;3.17;;;2.87;;
3427;SDS011;1727;42.624;23.406;2023-04-03T02:29:10;3.60;;;2.57;;
3427;SDS011;1727;42.624;23.406;2023-04-03T02:31:37;4.83;;;3.20;;
3427;SDS011;1727;42.624;23.406;2023-04-03T02:34:03;4.00;;;2.97;;
3427;SDS011;1727;42.624;23.406;2023-04-03T02:36:30;4.20;;;3.20;;
3427;SDS011;1727;42.624;23.406;2023-04-03T02:38:57;3.70;;;3.20;;
3427;SDS011;1727;42.624;23.406;2023-04-03T02:41:25;4.50;;;3.20;;
3427;SDS011;1727;42.624;23.406;2023-04-03T02:43:58;4.37;;;3.23;;
3427;SDS011;1727;42.624;23.406;2023-04-03T02:46:25;5.50;;;4.40;;
3427;SDS011;1727;42.624;23.406;2023-04-03T02:48:52;5.13;;;4.17;;
3427;SDS011;1727;42.624;23.406;2023-04-03T02:51:18;3.80;;;3.10;;
3427;SDS011;1727;42.624;23.406;2023-04-03T02:53:45;5.57;;;3.63;;
3427;SDS011;1727;42.624;23.406;2023-04-03T02:56:12;3.63;;;3.33;;
3427;SDS011;1727;42.624;23.406;2023-04-03T02:58:40;4.23;;;3.43;;
3427;SDS011;1727;42.624;23.406;2023-04-03T03:01:07;4.30;;;3.90;;
3427;SDS011;1727;42.624;23.406;2023-04-03T03:03:34;4.30;;;3.50;;
3427;SDS011;1727;42.624;23.406;2023-04-03T03:06:01;4.33;;;3.70;;
3427;SDS011;1727;42.624;23.406;2023-04-03T03:08:28;3.40;;;3.10;;
3427;SDS011;1727;42.624;23.406;2023-04-03T03:10:55;5.20;;;3.77;;
3427;SDS011;1727;42.624;23.406;2023-04-03T03:13:22;3.70;;;3.17;;
3427;SDS011;1727;42.624;23.406;2023-04-03T03:15:50;4.00;;;3.60;;
3427;SDS011;1727;42.624;23.406;2023-04-03T03:18:17;3.33;;;3.03;;
3427;SDS011;1727;42.624;23.406;2023-04-03T03:20:44;3.83;;;3.20;;
3427;SDS011;1727;42.624;23.406;2023-04-03T03:23:11;3.70;;;2.93;;
3427;SDS011;1727;42.624;23.406;2023-04-03T03:25:38;5.90;;;3.30;;
3427;SDS011;1727;42.624;23.406;2023-04-03T03:28:05;3.70;;;3.10;;
3427;SDS011;1727;42.624;23.406;2023-04-03T03:30:32;2.90;;;2.70;;
3427;SDS011;1727;42.624;23.406;2023-04-03T03:33:01;4.47;;;2.87;;
3427;SDS011;1727;42.624;23.406;2023-04-03T03:35:27;3.70;;;3.40;;
3427;SDS011;1727;42.624;23.406;2023-04-03T03:37:54;3.43;;;3.10;;
3427;SDS011;1727;42.624;23.406;2023-04-03T03:40:21;4.97;;;3.50;;
3427;SDS011;1727;42.624;23.406;2023-04-03T03:42:48;4.17;;;2.80;;
3427;SDS011;1727;42.624;23.406;2023-04-03T03:45:15;5.50;;;3.33;;
3427;SDS011;1727;42.624;23.406;2023-04-03T03:47:42;4.80;;;3.07;;
3427;SDS011;1727;42.624;23.406;2023-04-03T03:50:10;9.90;;;7.40;;
3427;SDS011;1727;42.624;23.406;2023-04-03T03:52:37;11.70;;;7.13;;
3427;SDS011;1727;42.624;23.406;2023-04-03T03:55:04;12.07;;;7.60;;
3427;SDS011;1727;42.624;23.406;2023-04-03T03:57:31;12.30;;;7.37;;
3427;SDS011;1727;42.624;23.406;2023-04-03T03:59:58;16.30;;;8.00;;
3427;SDS011;1727;42.624;23.406;2023-04-03T04:02:25;10.93;;;6.13;;
3427;SDS011;1727;42.624;23.406;2023-04-03T04:04:51;11.33;;;6.43;;
3427;SDS011;1727;42.624;23.406;2023-04-03T04:07:20;7.27;;;6.47;;
3427;SDS011;1727;42.624;23.406;2023-04-03T04:09:46;9.07;;;7.20;;
3427;SDS011;1727;42.624;23.406;2023-04-03T04:12:13;9.27;;;5.00;;
3427;SDS011;1727;42.624;23.406;2023-04-03T04:14:41;8.40;;;4.83;;
3427;SDS011;1727;42.624;23.406;2023-04-03T04:17:07;6.70;;;3.50;;
3427;SDS011;1727;42.624;23.406;2023-04-03T04:19:34;5.97;;;3.83;;
3427;SDS011;1727;42.624;23.406;2023-04-03T04:22:01;5.10;;;3.40;;
3427;SDS011;1727;42.624;23.406;2023-04-03T04:24:29;7.33;;;3.40;;
3427;SDS011;1727;42.624;23.406;2023-04-03T04:26:56;3.47;;;3.17;;
3427;SDS011;1727;42.624;23.406;2023-04-03T04:29:23;5.90;;;4.30;;
3427;SDS011;1727;42.624;23.406;2023-04-03T04:31:50;5.77;;;3.67;;
3427;SDS011;1727;42.624;23.406;2023-04-03T04:34:17;3.47;;;3.20;;
3427;SDS011;1727;42.624;23.406;2023-04-03T04:36:43;4.37;;;3.60;;
3427;SDS011;1727;42.624;23.406;2023-04-03T04:39:10;8.87;;;3.83;;
3427;SDS011;1727;42.624;23.406;2023-04-03T04:41:38;6.03;;;4.00;;
3427;SDS011;1727;42.624;23.406;2023-04-03T04:44:05;6.10;;;3.57;;
3427;SDS011;1727;42.624;23.406;2023-04-03T04:46:33;12.07;;;3.20;;
3427;SDS011;1727;42.624;23.406;2023-04-03T04:49:00;5.90;;;3.93;;
3427;SDS011;1727;42.624;23.406;2023-04-03T04:51:26;6.30;;;4.60;;
3427;SDS011;1727;42.624;23.406;2023-04-03T04:53:53;9.27;;;4.67;;
3427;SDS011;1727;42.624;23.406;2023-04-03T04:56:20;7.37;;;4.90;;
3427;SDS011;1727;42.624;23.406;2023-04-03T04:58:48;7.40;;;4.40;;
3427;SDS011;1727;42.624;23.406;2023-04-03T05:01:15;17.33;;;6.73;;
3427;SDS011;1727;42.624;23.406;2023-04-03T05:03:43;9.50;;;6.70;;
3427;SDS011;1727;42.624;23.406;2023-04-03T05:06:11;19.63;;;9.60;;
3427;SDS011;1727;42.624;23.406;2023-04-03T05:08:37;12.50;;;7.43;;
3427;SDS011;1727;42.624;23.406;2023-04-03T05:11:04;13.53;;;7.90;;
3427;SDS011;1727;42.624;23.406;2023-04-03T05:13:31;15.77;;;8.57;;
3427;SDS011;1727;42.624;23.406;2023-04-03T05:15:59;10.87;;;7.47;;
3427;SDS011;1727;42.624;23.406;2023-04-03T05:18:26;8.63;;;5.83;;
3427;SDS011;1727;42.624;23.406;2023-04-03T05:20:52;10.90;;;5.60;;
3427;SDS011;1727;42.624;23.406;2023-04-03T05:23:19;10.93;;;4.83;;
3427;SDS011;1727;42.624;23.406;2023-04-03T05:25:46;9.17;;;3.63;;
3427;SDS011;1727;42.624;23.406;2023-04-03T05:28:13;4.83;;;4.03;;
3427;SDS011;1727;42.624;23.406;2023-04-03T05:30:40;4.63;;;3.63;;
3427;SDS011;1727;42.624;23.406;2023-04-03T05:33:09;4.67;;;3.00;;
3427;SDS011;1727;42.624;23.406;2023-04-03T05:35:36;5.87;;;3.47;;
3427;SDS011;1727;42.624;23.406;2023-04-03T05:38:04;4.03;;;3.73;;
3427;SDS011;1727;42.624;23.406;2023-04-03T05:40:31;5.20;;;3.30;;
3427;SDS011;1727;42.624;23.406;2023-04-03T05:42:57;3.73;;;2.87;;
3427;SDS011;1727;42.624;23.406;2023-04-03T05:45:24;3.90;;;3.27;;
3427;SDS011;1727;42.624;23.406;2023-04-03T05:47:51;5.63;;;3.43;;
3427;SDS011;1727;42.624;23.406;2023-04-03T05:50:19;9.40;;;3.50;;
3427;SDS011;1727;42.624;23.406;2023-04-03T05:52:46;3.87;;;3.10;;
3427;SDS011;1727;42.624;23.406;2023-04-03T05:55:15;4.43;;;3.67;;
3427;SDS011;1727;42.624;23.406;2023-04-03T05:57:43;4.73;;;3.37;;
3427;SDS011;1727;42.624;23.406;2023-04-03T06:00:11;13.27;;;4.47;;
3427;SDS011;1727;42.624;23.406;2023-04-03T06:02:40;4.33;;;3.40;;
3427;SDS011;1727;42.624;23.406;2023-04-03T06:05:08;3.80;;;3.20;;
3427;SDS011;1727;42.624;23.406;2023-04-03T06:07:38;3.90;;;3.60;;
3427;SDS011;1727;42.624;23.406;2023-04-03T06:10:05;6.67;;;4.23;;
3427;SDS011;1727;42.624;23.406;2023-04-03T06:12:33;9.60;;;3.40;;
3427;SDS011;1727;42.624;23.406;2023-04-03T06:15:00;9.23;;;4.63;;
3427;SDS011;1727;42.624;23.406;2023-04-03T06:17:27;7.27;;;4.80;;
3427;SDS011;1727;42.624;23.406;2023-04-03T06:19:54;12.40;;;4.97;;
3427;SDS011;1727;42.624;23.406;2023-04-03T06:22:23;6.07;;;5.50;;
3427;SDS011;1727;42.624;23.406;2023-04-03T06:24:53;45.30;;;25.30;;
3427;SDS011;1727;42.624;23.406;2023-04-03T06:27:19;35.60;;;17.30;;
3427;SDS011;1727;42.624;23.406;2023-04-03T06:29:46;23.77;;;12.53;;
3427;SDS011;1727;42.624;23.406;2023-04-03T06:32:13;17.23;;;10.70;;
3427;SDS011;1727;42.624;23.406;2023-04-03T06:34:40;11.57;;;10.20;;
3427;SDS011;1727;42.624;23.406;2023-04-03T06:37:10;10.50;;;9.50;;
3427;SDS011;1727;42.624;23.406;2023-04-03T06:39:37;14.53;;;10.03;;
3427;SDS011;1727;42.624;23.406;2023-04-03T06:42:05;21.30;;;13.23;;
3427;SDS011;1727;42.624;23.406;2023-04-03T06:44:32;17.63;;;12.37;;
3427;SDS011;1727;42.624;23.406;2023-04-03T06:46:59;17.30;;;12.57;;
3427;SDS011;1727;42.624;23.406;2023-04-03T06:49:26;16.27;;;12.40;;
3427;SDS011;1727;42.624;23.406;2023-04-03T06:51:53;20.90;;;12.60;;
3427;SDS011;1727;42.624;23.406;2023-04-03T06:54:21;19.73;;;14.03;;
3427;SDS011;1727;42.624;23.406;2023-04-03T06:56:48;21.37;;;13.90;;
3427;SDS011;1727;42.624;23.406;2023-04-03T06:59:16;19.07;;;12.00;;
3427;SDS011;1727;42.624;23.406;2023-04-03T07:01:43;20.30;;;12.43;;
3427;SDS011;1727;42.624;23.406;2023-04-03T07:04:10;24.13;;;13.83;;
3427;SDS011;1727;42.624;23.406;2023-04-03T07:06:37;18.40;;;10.73;;
3427;SDS011;1727;42.624;23.406;2023-04-03T07:09:04;13.17;;;9.70;;
3427;SDS011;1727;42.624;23.406;2023-04-03T07:11:32;14.53;;;9.43;;
3427;SDS011;1727;42.624;23.406;2023-04-03T07:13:59;14.83;;;6.97;;
3427;SDS011;1727;42.624;23.406;2023-04-03T07:16:28;11.73;;;7.17;;
3427;SDS011;1727;42.624;23.406;2023-04-03T07:18:55;8.17;;;5.63;;
3427;SDS011;1727;42.624;23.406;2023-04-03T07:21:22;7.93;;;4.30;;
3427;SDS011;1727;42.624;23.406;2023-04-03T07:23:49;6.33;;;4.80;;
3427;SDS011;1727;42.624;23.406;2023-04-03T07:26:16;4.87;;;3.90;;
3427;SDS011;1727;42.624;23.406;2023-04-03T07:28:43;4.93;;;4.50;;
3427;SDS011;1727;42.624;23.406;2023-04-03T07:31:13;5.50;;;4.20;;
3427;SDS011;1727;42.624;23.406;2023-04-03T07:33:43;4.83;;;4.43;;
3427;SDS011;1727;42.624;23.406;2023-04-03T07:36:11;5.83;;;4.27;;
3427;SDS011;1727;42.624;23.406;2023-04-03T07:38:42;5.87;;;4.00;;
3427;SDS011;1727;42.624;23.406;2023-04-03T07:41:11;9.10;;;6.33;;
3427;SDS011;1727;42.624;23.406;2023-04-03T07:43:41;8.43;;;7.13;;
3427;SDS011;1727;42.624;23.406;2023-04-03T07:46:08;13.50;;;8.47;;
3427;SDS011;1727;42.624;23.406;2023-04-03T07:48:35;22.70;;;12.60;;
3427;SDS011;1727;42.624;23.406;2023-04-03T07:51:04;19.47;;;13.47;;
3427;SDS011;1727;42.624;23.406;2023-04-03T07:53:31;19.57;;;12.43;;
3427;SDS011;1727;42.624;23.406;2023-04-03T07:55:58;13.80;;;12.10;;
3427;SDS011;1727;42.624;23.406;2023-04-03T07:58:27;19.30;;;12.00;;
3427;SDS011;1727;42.624;23.406;2023-04-03T08:00:54;22.77;;;12.87;;
3427;SDS011;1727;42.624;23.406;2023-04-03T08:03:21;21.00;;;14.17;;
3427;SDS011;1727;42.624;23.406;2023-04-03T08:05:48;20.97;;;13.10;;
3427;SDS011;1727;42.624;23.406;2023-04-03T08:08:18;16.07;;;10.57;;
3427;SDS011;1727;42.624;23.406;2023-04-03T08:10:47;14.90;;;12.50;;
3427;SDS011;1727;42.624;23.406;2023-04-03T08:13:15;15.03;;;11.70;;
3427;SDS011;1727;42.624;23.406;2023-04-03T08:15:42;15.30;;;9.80;;
3427;SDS011;1727;42.624;23.406;2023-04-03T08:18:09;22.43;;;8.60;;
3427;SDS011;1727;42.624;23.406;2023-04-03T08:20:35;13.33;;;9.83;;
3427;SDS011;1727;42.624;23.406;2023-04-03T08:23:05;9.97;;;8.13;;
3427;SDS011;1727;42.624;23.406;2023-04-03T08:25:33;24.13;;;9.37;;
3427;SDS011;1727;42.624;23.406;2023-04-03T08:28:01;11.73;;;9.43;;
3427;SDS011;1727;42.624;23.406;2023-04-03T08:30:28;14.20;;;8.43;;
3427;SDS011;1727;42.624;23.406;2023-04-03T08:32:55;11.23;;;8.40;;
3427;SDS011;1727;42.624;23.406;2023-04-03T08:35:22;12.47;;;9.60;;
3427;SDS011;1727;42.624;23.406;2023-04-03T08:37:49;12.67;;;8.90;;
3427;SDS011;1727;42.624;23.406;2023-04-03T08:40:16;13.67;;;9.20;;
3427;SDS011;1727;42.624;23.406;2023-04-03T08:42:50;12.77;;;8.90;;
3427;SDS011;1727;42.624;23.406;2023-04-03T08:45:25;16.00;;;9.33;;
3427;SDS011;1727;42.624;23.406;2023-04-03T08:48:11;10.47;;;9.40;;
3427;SDS011;1727;42.624;23.406;2023-04-03T08:50:40;15.70;;;10.43;;
3427;SDS011;1727;42.624;23.406;2023-04-03T08:53:11;14.20;;;9.47;;
3427;SDS011;1727;42.624;23.406;2023-04-03T08:55:42;15.10;;;9.23;;
3427;SDS011;1727;42.624;23.406;2023-04-03T08:58:12;13.73;;;10.43;;
3427;SDS011;1727;42.624;23.406;2023-04-03T09:00:43;14.10;;;9.70;;
3427;SDS011;1727;42.624;23.406;2023-04-03T09:03:14;22.33;;;11.40;;
3427;SDS011;1727;42.624;23.406;2023-04-03T09:05:43;16.80;;;9.87;;
3427;SDS011;1727;42.624;23.406;2023-04-03T09:08:18;12.30;;;10.20;;
3427;SDS011;1727;42.624;23.406;2023-04-03T09:10:52;14.97;;;8.93;;
3427;SDS011;1727;42.624;23.406;2023-04-03T09:13:32;14.73;;;8.90;;
3427;SDS011;1727;42.624;23.406;2023-04-03T09:16:04;11.87;;;9.03;;
3427;SDS011;1727;42.624;23.406;2023-04-03T09:18:44;17.30;;;9.90;;
3427;SDS011;1727;42.624;23.406;2023-04-03T09:21:16;17.37;;;9.70;;
3427;SDS011;1727;42.624;23.406;2023-04-03T09:23:50;11.43;;;9.17;;
3427;SDS011;1727;42.624;23.406;2023-04-03T09:26:20;15.03;;;8.53;;
3427;SDS011;1727;42.624;23.406;2023-04-03T09:28:53;9.13;;;8.23;;
3427;SDS011;1727;42.624;23.406;2023-04-03T09:31:23;10.27;;;7.50;;
3427;SDS011;1727;42.624;23.406;2023-04-03T09:33:53;8.57;;;7.33;;
3427;SDS011;1727;42.624;23.406;2023-04-03T09:39:06;7.50;;;6.00;;
3427;SDS011;1727;42.624;23.406;2023-04-03T09:41:37;16.87;;;6.80;;
3427;SDS011;1727;42.624;23.406;2023-04-03T09:44:17;15.73;;;8.00;;
3427;SDS011;1727;42.624;23.406;2023-04-03T09:46:48;12.13;;;7.00;;
3427;SDS011;1727;42.624;23.406;2023-04-03T09:49:15;11.50;;;5.63;;
3427;SDS011;1727;42.624;23.406;2023-04-03T09:51:43;5.67;;;5.17;;
3427;SDS011;1727;42.624;23.406;2023-04-03T09:57:08;8.13;;;4.10;;
3427;SDS011;1727;42.624;23.406;2023-04-03T09:59:43;6.53;;;3.70;;
3427;SDS011;1727;42.624;23.406;2023-04-03T10:02:22;3.70;;;3.40;;
3427;SDS011;1727;42.624;23.406;2023-04-03T10:04:57;3.83;;;3.53;;
3427;SDS011;1727;42.624;23.406;2023-04-03T10:07:27;5.30;;;3.90;;
3427;SDS011;1727;42.624;23.406;2023-04-03T10:09:57;4.37;;;3.97;;
3427;SDS011;1727;42.624;23.406;2023-04-03T10:12:25;9.03;;;3.43;;
3427;SDS011;1727;42.624;23.406;2023-04-03T10:14:56;4.00;;;3.60;;
3427;SDS011;1727;42.624;23.406;2023-04-03T10:17:28;3.50;;;3.20;;
3427;SDS011;1727;42.624;23.406;2023-04-03T10:20:04;7.10;;;4.23;;
3427;SDS011;1727;42.624;23.406;2023-04-03T10:22:41;8.97;;;5.33;;
3427;SDS011;1727;42.624;23.406;2023-04-03T10:25:15;7.40;;;4.93;;
3427;SDS011;1727;42.624;23.406;2023-04-03T10:27:49;8.93;;;3.87;;
3427;SDS011;1727;42.624;23.406;2023-04-03T10:30:34;4.43;;;3.60;;
3427;SDS011;1727;42.624;23.406;2023-04-03T10:33:25;4.30;;;3.77;;
3427;SDS011;1727;42.624;23.406;2023-04-03T10:36:02;9.67;;;6.30;;
3427;SDS011;1727;42.624;23.406;2023-04-03T10:38:39;14.30;;;11.80;;
3427;SDS011;1727;42.624;23.406;2023-04-03T10:41:16;25.50;;;22.90;;
3427;SDS011;1727;42.624;23.406;2023-04-03T10:43:50;5.73;;;5.13;;
3427;SDS011;1727;42.624;23.406;2023-04-03T10:46:26;4.30;;;3.90;;
3427;SDS011;1727;42.624;23.406;2023-04-03T10:49:01;6.60;;;5.00;;
3427;SDS011;1727;42.624;23.406;2023-04-03T10:51:41;3.27;;;3.07;;
3427;SDS011;1727;42.624;23.406;2023-04-03T10:54:11;5.60;;;3.40;;
3427;SDS011;1727;42.624;23.406;2023-04-03T10:56:44;8.83;;;6.20;;
3427;SDS011;1727;42.624;23.406;2023-04-03T10:59:18;5.80;;;4.10;;
3427;SDS011;1727;42.624;23.406;2023-04-03T11:01:53;8.63;;;4.30;;
3427;SDS011;1727;42.624;23.406;2023-04-03T11:04:22;5.43;;;4.93;;
3427;SDS011;1727;42.624;23.406;2023-04-03T11:06:53;6.63;;;4.53;;
3427;SDS011;1727;42.624;23.406;2023-04-03T11:09:27;5.83;;;5.23;;
3427;SDS011;1727;42.624;23.406;2023-04-03T11:11:57;6.63;;;5.90;;
3427;SDS011;1727;42.624;23.406;2023-04-03T11:14:31;5.03;;;4.53;;
3427;SDS011;1727;42.624;23.406;2023-04-03T11:17:15;5.60;;;4.97;;
3427;SDS011;1727;42.624;23.406;2023-04-03T11:19:51;4.77;;;4.30;;
3427;SDS011;1727;42.624;23.406;2023-04-03T11:22:27;6.73;;;4.27;;
3427;SDS011;1727;42.624;23.406;2023-04-03T11:24:59;5.50;;;5.00;;
3427;SDS011;1727;42.624;23.406;2023-04-03T11:27:35;5.80;;;5.07;;
3427;SDS011;1727;42.624;23.406;2023-04-03T11:30:07;4.60;;;4.20;;
3427;SDS011;1727;42.624;23.406;2023-04-03T11:32:51;4.70;;;4.30;;
3427;SDS011;1727;42.624;23.406;2023-04-03T11:35:26;5.23;;;4.73;;
3427;SDS011;1727;42.624;23.406;2023-04-03T11:37:54;6.07;;;4.63;;
3427;SDS011;1727;42.624;23.406;2023-04-03T11:40:24;5.30;;;4.80;;
3427;SDS011;1727;42.624;23.406;2023-04-03T11:42:53;4.13;;;3.73;;
3427;SDS011;1727;42.624;23.406;2023-04-03T11:45:36;4.43;;;4.10;;
3427;SDS011;1727;42.624;23.406;2023-04-03T11:48:09;4.60;;;4.20;;
3427;SDS011;1727;42.624;23.406;2023-04-03T11:57:23;7.93;;;7.13;;
3427;SDS011;1727;42.624;23.406;2023-04-03T12:09:24;9.77;;;7.37;;
3427;SDS011;1727;42.624;23.406;2023-04-03T12:11:54;9.33;;;7.33;;
3427;SDS011;1727;42.624;23.406;2023-04-03T12:14:22;10.30;;;7.87;;
3427;SDS011;1727;42.624;23.406;2023-04-03T12:16:52;11.00;;;7.33;;
3427;SDS011;1727;42.624;23.406;2023-04-03T12:19:27;8.13;;;6.30;;
3427;SDS011;1727;42.624;23.406;2023-04-03T12:22:08;7.43;;;6.50;;
3427;SDS011;1727;42.624;23.406;2023-04-03T12:24:44;10.27;;;7.87;;
3427;SDS011;1727;42.624;23.406;2023-04-03T12:27:24;10.80;;;9.00;;
3427;SDS011;1727;42.624;23.406;2023-04-03T12:30:01;20.13;;;10.67;;
3427;SDS011;1727;42.624;23.406;2023-04-03T12:32:42;17.00;;;12.37;;
3427;SDS011;1727;42.624;23.406;2023-04-03T12:35:34;20.87;;;11.80;;
3427;SDS011;1727;42.624;23.406;2023-04-03T12:38:22;7.20;;;6.50;;
3427;SDS011;1727;42.624;23.406;2023-04-03T12:41:04;8.63;;;6.70;;
3427;SDS011;1727;42.624;23.406;2023-04-03T12:43:47;14.40;;;6.13;;
3427;SDS011;1727;42.624;23.406;2023-04-03T12:46:26;6.57;;;5.90;;
3427;SDS011;1727;42.624;23.406;2023-04-03T12:48:59;6.57;;;5.63;;
3427;SDS011;1727;42.624;23.406;2023-04-03T12:51:27;6.80;;;5.60;;
3427;SDS011;1727;42.624;23.406;2023-04-03T12:54:01;5.50;;;5.10;;
3427;SDS011;1727;42.624;23.406;2023-04-03T12:56:33;8.80;;;7.90;;
3427;SDS011;1727;42.624;23.406;2023-04-03T12:59:13;7.00;;;6.40;;
3427;SDS011;1727;42.624;23.406;2023-04-03T13:01:41;6.27;;;5.60;;
3427;SDS011;1727;42.624;23.406;2023-04-03T13:04:09;8.03;;;7.23;;
3427;SDS011;1727;42.624;23.406;2023-04-03T13:06:38;8.23;;;5.80;;
3427;SDS011;1727;42.624;23.406;2023-04-03T13:09:14;8.37;;;7.13;;
3427;SDS011;1727;42.624;23.406;2023-04-03T13:11:49;26.00;;;17.97;;
3427;SDS011;1727;42.624;23.406;2023-04-03T13:14:18;9.43;;;7.57;;
3427;SDS011;1727;42.624;23.406;2023-04-03T13:16:54;9.90;;;8.87;;
3427;SDS011;1727;42.624;23.406;2023-04-03T13:19:22;10.30;;;9.30;;
3427;SDS011;1727;42.624;23.406;2023-04-03T13:21:51;9.03;;;6.77;;
3427;SDS011;1727;42.624;23.406;2023-04-03T13:24:25;7.70;;;7.00;;
3427;SDS011;1727;42.624;23.406;2023-04-03T13:26:54;7.97;;;7.13;;
3427;SDS011;1727;42.624;23.406;2023-04-03T13:29:23;6.67;;;6.17;;
3427;SDS011;1727;42.624;23.406;2023-04-03T13:31:53;6.70;;;6.07;;
3427;SDS011;1727;42.624;23.406;2023-04-03T13:34:22;9.10;;;6.27;;
3427;SDS011;1727;42.624;23.406;2023-04-03T13:36:57;8.50;;;7.70;;
3427;SDS011;1727;42.624;23.406;2023-04-03T13:39:27;8.00;;;6.23;;
3427;SDS011;1727;42.624;23.406;2023-04-03T13:41:57;7.03;;;6.33;;
3427;SDS011;1727;42.624;23.406;2023-04-03T13:44:31;6.70;;;5.83;;
3427;SDS011;1727;42.624;23.406;2023-04-03T13:47:01;8.00;;;5.90;;
3427;SDS011;1727;42.624;23.406;2023-04-03T13:49:42;7.27;;;6.67;;
3427;SDS011;1727;42.624;23.406;2023-04-03T13:55:02;7.07;;;6.23;;
3427;SDS011;1727;42.624;23.406;2023-04-03T13:57:52;23.80;;;15.30;;
3427;SDS011;1727;42.624;23.406;2023-04-03T14:00:33;15.87;;;12.10;;
3427;SDS011;1727;42.624;23.406;2023-04-03T14:03:11;17.30;;;11.77;;
3427;SDS011;1727;42.624;23.406;2023-04-03T14:05:39;9.70;;;8.80;;
3427;SDS011;1727;42.624;23.406;2023-04-03T14:08:06;9.20;;;8.17;;
3427;SDS011;1727;42.624;23.406;2023-04-03T14:10:35;14.33;;;11.60;;
3427;SDS011;1727;42.624;23.406;2023-04-03T14:13:03;17.50;;;12.90;;
3427;SDS011;1727;42.624;23.406;2023-04-03T14:15:31;11.67;;;9.10;;
3427;SDS011;1727;42.624;23.406;2023-04-03T14:17:58;17.93;;;11.33;;
3427;SDS011;1727;42.624;23.406;2023-04-03T14:20:26;9.97;;;8.90;;
3427;SDS011;1727;42.624;23.406;2023-04-03T14:22:53;15.33;;;10.90;;
3427;SDS011;1727;42.624;23.406;2023-04-03T14:25:21;12.10;;;10.90;;
3427;SDS011;1727;42.624;23.406;2023-04-03T14:27:49;9.90;;;9.00;;
3427;SDS011;1727;42.624;23.406;2023-04-03T14:30:21;13.93;;;11.13;;
3427;SDS011;1727;42.624;23.406;2023-04-03T14:32:50;12.17;;;10.17;;
3427;SDS011;1727;42.624;23.406;2023-04-03T14:35:18;14.30;;;12.00;;
3427;SDS011;1727;42.624;23.406;2023-04-03T14:37:46;15.90;;;11.80;;
3427;SDS011;1727;42.624;23.406;2023-04-03T14:40:14;9.53;;;8.30;;
3427;SDS011;1727;42.624;23.406;2023-04-03T14:42:42;9.20;;;8.20;;
3427;SDS011;1727;42.624;23.406;2023-04-03T14:45:10;7.87;;;7.07;;
3427;SDS011;1727;42.624;23.406;2023-04-03T14:47:41;9.77;;;6.70;;
3427;SDS011;1727;42.624;23.406;2023-04-03T14:50:12;15.60;;;10.60;;
3427;SDS011;1727;42.624;23.406;2023-04-03T14:52:40;15.67;;;12.90;;
3427;SDS011;1727;42.624;23.406;2023-04-03T14:55:08;12.43;;;8.20;;
3427;SDS011;1727;42.624;23.406;2023-04-03T14:57:37;10.33;;;9.07;;
3427;SDS011;1727;42.624;23.406;2023-04-03T15:00:07;11.80;;;10.07;;
3427;SDS011;1727;42.624;23.406;2023-04-03T15:02:38;13.07;;;11.73;;
3427;SDS011;1727;42.624;23.406;2023-04-03T15:05:09;10.00;;;7.57;;
3427;SDS011;1727;42.624;23.406;2023-04-03T15:07:37;8.33;;;6.50;;
3427;SDS011;1727;42.624;23.406;2023-04-03T15:10:14;7.87;;;7.10;;
3427;SDS011;1727;42.624;23.406;2023-04-03T15:12:44;7.73;;;7.00;;
3427;SDS011;1727;42.624;23.406;2023-04-03T15:15:11;6.97;;;6.30;;
3427;SDS011;1727;42.624;23.406;2023-04-03T15:17:39;7.70;;;6.60;;
3427;SDS011;1727;42.624;23.406;2023-04-03T15:20:12;7.67;;;6.97;;
3427;SDS011;1727;42.624;23.406;2023-04-03T15:22:40;6.60;;;6.00;;
3427;SDS011;1727;42.624;23.406;2023-04-03T15:25:07;6.97;;;5.83;;
3427;SDS011;1727;42.624;23.406;2023-04-03T15:27:35;7.73;;;6.30;;
3427;SDS011;1727;42.624;23.406;2023-04-03T15:30:02;8.30;;;6.23;;
3427;SDS011;1727;42.624;23.406;2023-04-03T15:32:30;6.30;;;5.70;;
3427;SDS011;1727;42.624;23.406;2023-04-03T15:34:56;10.47;;;8.07;;